createdAt,value
2023-02-13T00:01:04.924Z,5.85
2023-02-13T00:03:32.704Z,5.85
2023-02-13T00:06:00.664Z,5.83
2023-02-13T00:08:28.591Z,5.83
2023-02-13T00:10:56.741Z,5.83
2023-02-13T00:13:24.655Z,5.81
2023-02-13T00:16:01.574Z,5.79
2023-02-13T00:18:30.500Z,5.78
2023-02-13T00:20:59.792Z,5.76
2023-02-13T00:23:27.654Z,5.76
2023-02-13T00:25:55.449Z,5.75
2023-02-13T00:28:23.276Z,5.73
2023-02-13T00:30:51.638Z,5.72
2023-02-13T00:33:22.245Z,5.72
2023-02-13T00:35:50.028Z,5.71
2023-02-13T07:22:47.251Z,3.93
2023-02-13T07:25:15.245Z,3.93
2023-02-13T07:27:42.946Z,3.94
2023-02-13T08:00:16.008Z,4.10
2023-02-13T08:19:51.279Z,4.24
2023-02-13T08:22:44.679Z,4.28
2023-02-13T08:25:13.068Z,4.31
2023-02-13T08:27:40.784Z,4.34
2023-02-13T08:30:11.678Z,4.35
2023-02-13T08:32:53.115Z,4.37
2023-02-13T08:35:22.646Z,4.40
2023-02-13T08:37:50.444Z,4.43
2023-02-13T08:40:43.498Z,4.47
2023-02-13T08:43:11.398Z,4.48
2023-02-13T08:45:40.632Z,4.52
2023-02-13T08:48:08.630Z,4.55
2023-02-13T08:50:37.410Z,4.53
2023-02-13T08:53:05.373Z,4.56
2023-02-13T08:55:33.349Z,4.57
2023-02-13T08:58:02.558Z,4.59
2023-02-13T09:00:31.242Z,4.61
2023-02-13T09:03:03.785Z,4.63
2023-02-13T09:05:32.411Z,4.64
2023-02-13T09:08:02.739Z,4.67
2023-02-13T09:10:30.871Z,4.72
2023-02-13T09:12:58.733Z,4.73
2023-02-13T09:15:26.514Z,4.77
2023-02-13T09:17:54.293Z,4.77
2023-02-13T09:20:24.276Z,4.78
2023-02-13T09:22:52.258Z,4.80
2023-02-13T09:25:21.571Z,4.83
2023-02-13T09:27:49.530Z,4.84
2023-02-13T09:30:23.293Z,4.87
2023-02-13T09:32:51.678Z,4.88
2023-02-13T09:35:19.824Z,4.90
2023-02-13T09:37:48.976Z,4.91
2023-02-13T09:40:22.060Z,4.94
2023-02-13T09:42:50.906Z,4.96
2023-02-13T09:45:22.955Z,4.96
2023-02-13T09:47:51.630Z,5.00
2023-02-13T09:50:23.031Z,5.03
2023-02-13T09:52:54.508Z,5.06
2023-02-13T09:55:25.559Z,5.08
2023-02-13T09:57:59.713Z,5.11
2023-02-13T10:00:34.507Z,5.13
2023-02-13T10:03:20.188Z,5.17
2023-02-13T10:05:57.824Z,5.17
2023-02-13T10:08:39.136Z,5.18
2023-02-13T10:11:21.629Z,5.21
2023-02-13T10:14:02.670Z,5.24
2023-02-13T10:16:36.529Z,5.29
2023-02-13T10:19:09.974Z,5.34
2023-02-13T10:21:43.027Z,5.38
2023-02-13T10:24:18.826Z,5.42
2023-02-13T10:26:48.630Z,5.45
2023-02-13T10:29:41.558Z,5.51
2023-02-13T10:32:11.749Z,5.57
2023-02-13T10:34:44.523Z,5.61
2023-02-13T10:37:17.607Z,5.67
2023-02-13T10:39:49.932Z,5.70
2023-02-13T10:42:36.610Z,5.72
2023-02-13T10:45:25.514Z,5.77
2023-02-13T10:48:08.006Z,5.85
2023-02-13T10:50:43.208Z,5.94
2023-02-13T10:53:18.993Z,6.04
2023-02-13T10:56:01.402Z,6.14
2023-02-13T10:58:39.949Z,6.21
2023-02-13T11:01:16.009Z,6.29
2023-02-13T11:04:12.258Z,6.37
2023-02-13T11:06:46.635Z,6.43
2023-02-13T11:09:14.471Z,6.46
2023-02-13T11:11:44.302Z,6.53
2023-02-13T11:14:15.345Z,6.57
2023-02-13T11:16:51.755Z,6.62
2023-02-13T11:19:25.137Z,6.71
2023-02-13T11:21:56.444Z,6.79
2023-02-13T11:24:27.255Z,6.85
2023-02-13T11:27:00.897Z,6.99
2023-02-13T11:29:31.402Z,7.10
2023-02-13T11:32:16.986Z,7.17
2023-02-13T11:34:46.506Z,7.32
2023-02-13T11:37:32.915Z,7.46
2023-02-13T11:40:18.458Z,7.61
2023-02-13T11:42:51.550Z,7.77
2023-02-13T11:45:24.257Z,7.90
2023-02-13T11:47:55.089Z,8.09
2023-02-13T11:50:27.021Z,8.19
2023-02-13T11:52:57.917Z,8.13
2023-02-13T11:55:29.642Z,8.23
2023-02-13T11:58:01.083Z,8.25
2023-02-13T12:00:37.504Z,8.26
2023-02-13T12:03:26.813Z,8.32
2023-02-13T12:06:04.569Z,8.32
2023-02-13T12:08:33.821Z,8.30
2023-02-13T12:11:03.588Z,8.26
2023-02-13T12:13:36.841Z,8.23
2023-02-13T12:16:11.493Z,8.19
2023-02-13T12:19:08.272Z,8.13
2023-02-13T12:21:49.286Z,8.07
2023-02-13T12:24:36.811Z,8.08
2023-02-13T12:30:30.239Z,8.03
2023-02-13T12:33:05.773Z,8.02
2023-02-13T12:35:43.173Z,7.99
2023-02-13T12:38:23.402Z,7.98
2023-02-13T12:41:14.697Z,7.95
2023-02-13T12:44:17.698Z,8.04
2023-02-13T12:46:56.890Z,8.11
2023-02-13T12:49:49.608Z,8.13
2023-02-13T12:52:31.547Z,8.19
2023-02-13T12:55:13.481Z,8.30
2023-02-13T12:57:51.513Z,8.40
2023-02-13T13:00:30.851Z,8.48
2023-02-13T13:03:24.761Z,8.43
2023-02-13T13:06:12.792Z,8.47
2023-02-13T13:08:58.280Z,8.51
2023-02-13T13:11:40.940Z,8.61
2023-02-13T13:14:16.428Z,8.70
2023-02-13T13:16:51.597Z,8.75
2023-02-13T13:19:28.970Z,8.78
2023-02-13T13:22:03.406Z,8.79
2023-02-13T13:24:43.316Z,8.83
2023-02-13T13:27:19.077Z,8.88
2023-02-13T13:29:53.027Z,8.90
2023-02-13T13:32:22.813Z,8.89
2023-02-13T13:34:52.933Z,8.87
2023-02-13T13:37:30.861Z,8.81
2023-02-13T13:40:03.104Z,8.82
2023-02-13T13:42:40.434Z,8.78
2023-02-13T13:45:21.423Z,8.80
2023-02-13T13:48:00.105Z,8.82
2023-02-13T13:50:32.403Z,8.84
2023-02-13T13:53:09.222Z,8.83
2023-02-13T13:56:00.145Z,8.81
2023-02-13T13:58:35.029Z,8.80
2023-02-13T14:01:33.066Z,8.77
2023-02-13T14:04:03.617Z,8.78
2023-02-13T14:07:10.144Z,8.78
2023-02-13T14:09:41.592Z,8.78
2023-02-13T14:12:38.584Z,8.76
2023-02-13T14:15:06.812Z,8.70
2023-02-13T14:17:54.522Z,8.66
2023-02-13T14:20:31.684Z,8.63
2023-02-13T14:23:09.352Z,8.63
2023-02-13T14:25:38.549Z,8.61
2023-02-13T14:28:07.593Z,8.55
2023-02-13T14:30:39.671Z,8.53
2023-02-13T14:33:22.294Z,8.51
2023-02-13T14:36:01.530Z,8.46
2023-02-13T14:38:29.994Z,8.43
2023-02-13T14:41:00.020Z,8.40
2023-02-13T14:43:36.762Z,8.35
2023-02-13T14:46:21.729Z,8.30
2023-02-13T14:48:57.030Z,8.25
2023-02-13T14:51:31.993Z,8.20
2023-02-13T14:54:13.000Z,8.14
2023-02-13T14:56:46.104Z,8.09
2023-02-13T14:59:17.785Z,8.05
2023-02-13T15:01:52.486Z,8.02
2023-02-13T15:04:27.875Z,7.98
2023-02-13T15:06:58.761Z,7.96
2023-02-13T15:09:33.594Z,7.93
2023-02-13T15:12:03.050Z,7.89
2023-02-13T15:14:36.162Z,7.86
2023-02-13T15:17:08.281Z,7.80
2023-02-13T15:19:40.293Z,7.78
2023-02-13T15:22:08.530Z,7.74
2023-02-13T15:24:47.092Z,7.69
2023-02-13T15:27:21.224Z,7.65
2023-02-13T15:29:57.556Z,7.60
2023-02-13T15:32:30.369Z,7.57
2023-02-13T15:34:58.154Z,7.54
2023-02-13T15:37:29.349Z,7.50
2023-02-13T15:39:57.312Z,7.46
2023-02-13T15:42:26.480Z,7.46
2023-02-13T15:44:58.432Z,7.46
2023-02-13T15:47:29.537Z,7.43
2023-02-13T15:49:57.794Z,7.37
2023-02-13T15:52:31.483Z,7.33
2023-02-13T15:54:59.981Z,7.28
2023-02-13T15:57:30.299Z,7.23
2023-02-13T16:00:01.537Z,7.14
2023-02-13T16:02:43.090Z,7.09
2023-02-13T16:05:13.025Z,7.04
2023-02-13T16:07:52.102Z,6.99
2023-02-13T16:10:28.047Z,6.92
2023-02-13T16:12:58.898Z,6.87
2023-02-13T16:15:30.509Z,6.83
2023-02-13T16:17:59.005Z,6.79
2023-02-13T16:20:28.785Z,6.76
2023-02-13T16:23:00.090Z,6.74
2023-02-13T16:25:31.954Z,6.71
2023-02-13T16:28:03.818Z,6.65
2023-02-13T16:30:34.936Z,6.58
2023-02-13T16:33:21.203Z,6.49
2023-02-13T16:35:50.707Z,6.45
2023-02-13T16:38:31.412Z,6.39
2023-02-13T16:41:00.988Z,6.33
2023-02-13T16:43:38.035Z,6.24
2023-02-13T16:46:30.417Z,6.15
2023-02-13T16:49:26.741Z,6.07
2023-02-13T16:52:18.399Z,6.00
2023-02-13T16:54:54.283Z,5.97
2023-02-13T16:57:27.027Z,5.87
2023-02-13T17:00:03.930Z,5.79
2023-02-13T17:02:33.594Z,5.74
2023-02-13T17:05:17.224Z,5.67
2023-02-13T17:07:48.139Z,5.63
2023-02-13T17:10:19.995Z,5.59
2023-02-13T17:12:48.746Z,5.57
2023-02-13T17:15:21.539Z,5.54
2023-02-13T17:17:50.598Z,5.53
2023-02-13T17:20:21.439Z,5.49
2023-02-13T17:22:51.268Z,5.44
2023-02-13T17:25:22.398Z,5.40
2023-02-13T17:27:51.108Z,5.37
2023-02-13T17:30:22.581Z,5.32
2023-02-13T17:32:54.997Z,5.27
2023-02-13T17:35:22.833Z,5.23
2023-02-13T17:37:50.684Z,5.15
2023-02-13T17:40:19.916Z,5.08
2023-02-13T17:42:51.397Z,5.01
2023-02-13T17:45:23.866Z,4.93
2023-02-13T17:47:51.811Z,4.86
2023-02-13T17:50:20.467Z,4.79
2023-02-13T17:52:49.781Z,4.70
2023-02-13T17:55:21.155Z,4.62
2023-02-13T17:57:49.291Z,4.55
2023-02-13T18:00:19.962Z,4.47
2023-02-13T18:02:50.899Z,4.41
2023-02-13T18:05:20.204Z,4.34
2023-02-13T18:07:48.765Z,4.25
2023-02-13T18:10:18.784Z,4.17
2023-02-13T18:12:53.062Z,4.08
2023-02-13T18:15:21.112Z,3.99
2023-02-13T18:17:50.323Z,3.92
2023-02-13T18:20:20.632Z,3.85
2023-02-13T18:22:50.390Z,3.78
2023-02-13T18:25:18.960Z,3.72
2023-02-13T18:27:47.302Z,3.63
2023-02-13T18:30:18.274Z,3.55
2023-02-13T18:32:46.710Z,3.49
2023-02-13T18:35:17.486Z,3.43
2023-02-13T18:37:45.376Z,3.38
2023-02-13T18:40:14.992Z,3.31
2023-02-13T18:42:42.975Z,3.28
2023-02-13T18:45:11.936Z,3.23
2023-02-13T18:47:39.758Z,3.16
2023-02-13T18:50:09.253Z,3.13
2023-02-13T18:52:39.491Z,3.10
2023-02-13T18:55:08.361Z,3.07
2023-02-13T18:57:36.102Z,3.01
2023-02-13T19:00:04.822Z,2.98
2023-02-13T19:02:33.432Z,2.95
2023-02-13T19:05:02.078Z,2.89
2023-02-13T19:07:30.031Z,2.81
2023-02-13T19:09:59.242Z,2.73
2023-02-13T19:12:27.113Z,2.67
2023-02-13T19:14:55.047Z,2.66
2023-02-13T19:17:22.932Z,2.63
2023-02-13T19:19:51.715Z,2.60
2023-02-13T19:22:19.753Z,2.58
2023-02-13T19:24:47.644Z,2.53
2023-02-13T19:27:17.485Z,2.48
2023-02-13T19:29:45.333Z,2.44
2023-02-13T19:32:13.142Z,2.38
2023-02-13T19:34:42.257Z,2.34
2023-02-13T19:37:10.108Z,2.31
2023-02-13T19:39:37.893Z,2.24
2023-02-13T19:42:05.960Z,2.18
2023-02-13T19:44:35.074Z,2.10
2023-02-13T19:47:02.877Z,2.04
2023-02-13T19:49:30.699Z,1.98
2023-02-13T19:51:58.448Z,1.93
2023-02-13T19:54:26.272Z,1.86
2023-02-13T19:57:00.284Z,1.79
2023-02-13T19:59:28.521Z,1.72
2023-02-13T20:01:57.749Z,1.66
2023-02-13T20:04:25.678Z,1.60
2023-02-13T20:06:58.334Z,1.57
2023-02-13T20:09:26.130Z,1.53
2023-02-13T20:11:53.897Z,1.49
2023-02-13T20:14:27.895Z,1.44
2023-02-13T20:16:58.172Z,1.42
2023-02-13T20:19:27.818Z,1.38
2023-02-13T20:21:55.528Z,1.35
2023-02-13T20:24:23.734Z,1.30
2023-02-13T20:26:51.541Z,1.24
2023-02-13T20:29:19.345Z,1.22
2023-02-13T20:31:47.832Z,1.19
2023-02-13T20:34:17.002Z,1.18
2023-02-13T20:36:44.858Z,1.15
2023-02-13T20:39:12.938Z,1.12
2023-02-13T20:41:41.180Z,1.09
2023-02-13T20:44:17.126Z,1.06
2023-02-13T20:46:44.940Z,1.06
2023-02-13T20:49:18.825Z,1.03
2023-02-13T20:51:48.079Z,1.02
2023-02-13T20:54:16.018Z,0.98
2023-02-13T20:56:45.254Z,0.93
2023-02-13T20:59:13.424Z,0.89
2023-02-13T21:01:41.516Z,0.87
2023-02-13T21:04:11.133Z,0.85
2023-02-13T21:06:39.809Z,0.82
2023-02-13T21:09:10.267Z,0.81
2023-02-13T21:11:40.187Z,0.80
2023-02-13T21:14:08.099Z,0.79
2023-02-13T21:16:38.811Z,0.76
2023-02-13T21:19:09.366Z,0.73
2023-02-13T21:21:40.844Z,0.69
2023-02-13T21:24:13.016Z,0.66
2023-02-13T21:26:41.737Z,0.65
2023-02-13T21:29:09.764Z,0.64
2023-02-13T21:31:40.166Z,0.64
2023-02-13T21:34:09.657Z,0.63
2023-02-13T21:36:38.159Z,0.62
2023-02-13T21:39:06.475Z,0.61
2023-02-13T21:41:37.087Z,0.60
2023-02-13T21:44:05.224Z,0.56
2023-02-13T21:46:34.168Z,0.53
2023-02-13T21:49:06.318Z,0.52
2023-02-13T21:51:36.362Z,0.49
2023-02-13T21:54:04.387Z,0.46
2023-02-13T21:56:33.760Z,0.42
2023-02-13T21:59:03.245Z,0.35
2023-02-13T22:01:45.361Z,0.25
2023-02-13T22:04:13.585Z,0.18
2023-02-13T22:06:41.966Z,0.13
2023-02-13T22:09:11.710Z,0.08
2023-02-13T22:11:40.641Z,0.03
2023-02-13T22:14:13.445Z,0.01
2023-02-13T22:16:42.451Z,-0.02
2023-02-13T22:19:13.911Z,-0.04
2023-02-13T22:21:42.075Z,-0.07
2023-02-13T22:24:10.353Z,-0.10
2023-02-13T22:26:39.905Z,-0.11
2023-02-13T22:32:03.560Z,-0.11
2023-02-13T22:34:31.467Z,-0.10
2023-02-13T22:36:59.279Z,-0.13
2023-02-13T22:39:27.144Z,-0.12
2023-02-13T22:41:56.793Z,-0.12
2023-02-13T22:44:26.154Z,-0.12
2023-02-13T22:46:53.933Z,-0.12
2023-02-13T22:49:21.819Z,-0.12
2023-02-13T22:51:49.533Z,-0.12
2023-02-13T22:54:17.325Z,-0.12
2023-02-13T22:56:45.274Z,-0.12
2023-02-13T22:59:13.186Z,-0.12
2023-02-13T23:01:42.348Z,-0.12
2023-02-13T23:06:36.657Z,-0.12
2023-02-13T23:09:04.817Z,-0.13
2023-02-13T23:11:50.191Z,-0.12
2023-02-13T23:14:17.987Z,-0.13
2023-02-13T23:17:03.735Z,-0.14
2023-02-13T23:19:31.732Z,-0.15
2023-02-13T23:22:01.337Z,-0.16
2023-02-13T23:24:30.247Z,-0.17
2023-02-13T23:26:58.080Z,-0.21
2023-02-13T23:29:26.188Z,-0.20
2023-02-13T23:31:54.370Z,-0.19
2023-02-13T23:34:22.867Z,-0.22
2023-02-13T23:36:50.652Z,-0.24
2023-02-13T23:39:20.253Z,-0.23
2023-02-13T23:41:48.066Z,-0.25
2023-02-13T23:44:15.998Z,-0.27
2023-02-13T23:46:43.762Z,-0.30
2023-02-13T23:49:11.654Z,-0.32
2023-02-13T23:51:39.475Z,-0.34
2023-02-13T23:54:07.347Z,-0.33
2023-02-13T23:56:36.417Z,-0.31
2023-02-13T23:59:04.278Z,-0.28
